Time;durP1;ratioP1;P1;durP2;ratioP2;P2;SDS_P1;SDS_P2;PMS_P1;PMS_P2;Temp;Humidity;BMP_temperature;BMP_pressure;BME280_temperature;BME280_humidity;BME280_pressure;Samples;Min_cycle;Max_cycle;Signal;HPM_P1;HPM_P2
2023/04/04 00:00:43;;;;;;;3.63;1.50;;;;;;;1.13;67.57;102892.31;4948141;28;20102;-81
2023/04/04 00:03:09;;;;;;;3.43;1.50;;;;;;;1.11;68.43;102896.50;4949584;28;20114;-81
2023/04/04 00:05:34;;;;;;;3.23;1.40;;;;;;;1.08;68.76;102896.34;4952024;28;20035;-81
2023/04/04 00:08:01;;;;;;;2.80;1.60;;;;;;;1.05;68.83;102900.50;4951047;28;20383;-81
2023/04/04 00:10:26;;;;;;;2.87;1.70;;;;;;;1.01;69.13;102898.63;4953258;28;20045;-81
2023/04/04 00:12:51;;;;;;;4.53;1.57;;;;;;;0.99;68.87;102905.38;4951914;28;20031;-81
2023/04/04 00:15:17;;;;;;;2.90;1.50;;;;;;;0.97;69.12;102899.28;4954863;28;20034;-81
2023/04/04 00:17:42;;;;;;;3.27;1.57;;;;;;;0.97;69.11;102901.84;4950024;28;20031;-81
2023/04/04 00:20:08;;;;;;;3.63;1.60;;;;;;;0.98;69.07;102903.63;4949488;28;20070;-81
2023/04/04 00:22:33;;;;;;;2.77;1.70;;;;;;;0.98;69.26;102898.47;4957393;28;20497;-81
2023/04/04 00:24:58;;;;;;;2.87;1.50;;;;;;;0.95;69.12;102894.88;4950187;28;20039;-81
2023/04/04 00:27:24;;;;;;;4.73;1.57;;;;;;;0.95;68.38;102893.22;4950389;28;20042;-81
2023/04/04 00:29:49;;;;;;;2.30;1.40;;;;;;;0.94;69.13;102896.56;4952455;28;20035;-81
2023/04/04 00:32:15;;;;;;;2.33;1.50;;;;;;;0.91;69.10;102896.41;4951863;28;20044;-82
2023/04/04 00:34:40;;;;;;;3.40;1.67;;;;;;;0.89;68.74;102901.50;4964586;28;20042;-81
2023/04/04 00:37:06;;;;;;;3.40;1.70;;;;;;;0.89;68.59;102904.06;4962734;28;20031;-82
2023/04/04 00:39:32;;;;;;;4.37;1.60;;;;;;;0.89;69.25;102904.06;4951467;28;20034;-81
2023/04/04 00:41:57;;;;;;;2.90;1.60;;;;;;;0.89;69.94;102905.72;4950177;28;20030;-81
2023/04/04 00:44:23;;;;;;;3.87;1.60;;;;;;;0.87;69.11;102903.09;4954935;28;20039;-81
2023/04/04 00:46:50;;;;;;;4.43;1.60;;;;;;;0.86;69.01;102903.91;4953529;28;20401;-81
2023/04/04 00:49:15;;;;;;;3.13;1.57;;;;;;;0.86;68.73;102901.34;4958646;28;20038;-81
2023/04/04 00:51:40;;;;;;;4.23;1.70;;;;;;;0.85;69.67;102899.56;4944461;28;20043;-81
2023/04/04 00:54:06;;;;;;;3.20;1.60;;;;;;;0.84;69.46;102894.41;4954769;28;20035;-82
2023/04/04 00:56:34;;;;;;;3.53;1.60;;;;;;;0.84;69.93;102894.41;4946015;28;20027;-81
2023/04/04 00:58:59;;;;;;;2.77;1.50;;;;;;;0.83;69.56;102895.19;4953991;28;20382;-82
2023/04/04 01:01:25;;;;;;;3.87;1.70;;;;;;;0.82;69.90;102903.69;4962393;28;20039;-82
2023/04/04 01:03:51;;;;;;;2.33;1.33;;;;;;;0.83;70.13;102896.06;4957961;28;20048;-82
2023/04/04 01:06:17;;;;;;;2.87;1.60;;;;;;;0.83;69.69;102895.19;4939865;28;20083;-82
2023/04/04 01:08:42;;;;;;;3.57;1.60;;;;;;;0.83;70.41;102897.75;4951650;28;20110;-82
2023/04/04 01:11:08;;;;;;;3.70;1.70;;;;;;;0.82;70.39;102896.88;4956505;28;20050;-82
2023/04/04 01:13:34;;;;;;;2.97;1.50;;;;;;;0.81;70.60;102896.81;4950940;28;20073;-82
2023/04/04 01:16:00;;;;;;;2.53;1.60;;;;;;;0.81;70.25;102886.56;4943138;28;20023;-82
2023/04/04 01:18:26;;;;;;;3.17;1.80;;;;;;;0.79;69.61;102878.78;4938157;28;20031;-82
2023/04/04 01:21:01;;;;;;;2.47;1.50;;;;;;;0.75;69.29;102874.34;4940880;28;20035;-82
2023/04/04 01:23:43;;;;;;;3.77;1.67;;;;;;;0.71;69.92;102874.97;4952824;28;20110;-82
2023/04/04 01:26:08;;;;;;;;;;;;;;;0.71;67.37;102880.97;4932556;28;20089;-82
2023/04/04 01:28:34;;;;;;;4.30;1.70;;;;;;;0.66;69.05;102882.44;4941656;28;19914;-82
2023/04/04 01:31:01;;;;;;;2.50;1.50;;;;;;;0.63;69.70;102879.75;4951608;28;20035;-82
2023/04/04 01:33:36;;;;;;;3.30;1.53;;;;;;;0.59;70.16;102872.69;4956581;28;20086;-81
2023/04/04 01:36:30;;;;;;;3.70;1.67;;;;;;;0.58;69.58;102876.06;4957679;28;20114;-81
2023/04/04 01:39:38;;;;;;;2.77;1.60;;;;;;;0.57;69.18;102869.19;4944692;28;20019;-81
2023/04/04 01:42:05;;;;;;;4.23;1.80;;;;;;;0.54;70.69;102874.16;4946166;28;20031;-81
2023/04/04 01:44:31;;;;;;;3.10;1.70;;;;;;;0.53;70.14;102868.16;4948731;28;20494;-81
2023/04/04 01:46:56;;;;;;;4.10;1.70;;;;;;;0.51;70.06;102871.47;4955629;28;20031;-81
2023/04/04 01:49:22;;;;;;;3.33;1.77;;;;;;;0.48;70.11;102872.19;4955020;28;20097;-81
2023/04/04 01:51:49;;;;;;;3.70;1.53;;;;;;;0.43;70.19;102866.84;4953880;28;22162;-81
2023/04/04 01:54:15;;;;;;;3.20;1.80;;;;;;;0.41;69.94;102868.44;4951902;28;20126;-81
2023/04/04 01:56:41;;;;;;;4.43;2.00;;;;;;;0.35;70.26;102868.13;4951188;28;20508;-81
2023/04/04 01:59:06;;;;;;;3.43;1.90;;;;;;;0.33;70.18;102868.88;4943515;28;20027;-81
2023/04/04 02:01:32;;;;;;;5.23;1.63;;;;;;;0.29;70.00;102867.84;4932552;28;20411;-81
2023/04/04 02:03:57;;;;;;;3.47;1.90;;;;;;;0.28;71.21;102863.53;4952109;28;20043;-81
2023/04/04 02:06:23;;;;;;;3.60;1.73;;;;;;;0.28;70.85;102863.53;4951345;28;20033;-81
2023/04/04 02:08:48;;;;;;;3.73;1.90;;;;;;;0.26;70.26;102873.66;4945858;28;20466;-81
2023/04/04 02:11:13;;;;;;;4.37;2.10;;;;;;;0.22;70.80;102868.31;4950836;28;20046;-81
2023/04/04 02:13:43;;;;;;;4.10;1.80;;;;;;;0.20;70.85;102867.38;4951446;28;20062;-81
2023/04/04 02:16:08;;;;;;;3.97;1.90;;;;;;;0.19;70.90;102873.28;4963957;28;20062;-81
2023/04/04 02:18:35;;;;;;;4.07;1.90;;;;;;;0.18;71.51;102868.97;4952856;28;20035;-81
2023/04/04 02:21:00;;;;;;;3.37;1.90;;;;;;;0.20;71.13;102869.94;4948664;28;20113;-81
2023/04/04 02:23:25;;;;;;;2.93;1.80;;;;;;;0.18;71.47;102877.53;4950537;28;20470;-82
2023/04/04 02:25:50;;;;;;;3.37;1.80;;;;;;;0.17;70.77;102872.38;4949172;28;20468;-81
2023/04/04 02:28:16;;;;;;;4.70;2.00;;;;;;;0.17;70.14;102880.03;4950915;28;20026;-81
2023/04/04 02:30:41;;;;;;;3.37;2.03;;;;;;;0.18;69.54;102881.78;4962666;28;20038;-81
2023/04/04 02:33:07;;;;;;;3.97;1.93;;;;;;;0.20;69.58;102887.84;4957181;28;20031;-81
2023/04/04 02:35:32;;;;;;;5.77;2.10;;;;;;;0.19;70.36;102884.41;4966888;28;20034;-81
2023/04/04 02:37:57;;;;;;;3.47;1.83;;;;;;;0.16;70.49;102885.97;4953937;28;20039;-82
2023/04/04 02:40:23;;;;;;;3.90;1.90;;;;;;;0.14;70.65;102883.31;4958344;28;20101;-81
2023/04/04 02:42:48;;;;;;;3.73;1.93;;;;;;;0.14;70.98;102885.84;4952658;28;20034;-81
2023/04/04 02:45:13;;;;;;;3.90;1.70;;;;;;;0.12;70.31;102885.81;4951336;28;20067;-81
2023/04/04 02:47:40;;;;;;;3.53;1.83;;;;;;;0.09;70.73;102880.53;4951399;28;20027;-81
2023/04/04 02:50:06;;;;;;;4.83;2.00;;;;;;;0.07;71.11;102879.56;4950356;28;20485;-81
2023/04/04 02:52:31;;;;;;;6.70;1.80;;;;;;;0.06;71.42;102874.38;4945166;28;20540;-81
2023/04/04 02:54:57;;;;;;;4.87;1.80;;;;;;;0.05;71.54;102873.47;4946617;28;20125;-81
2023/04/04 02:57:22;;;;;;;4.23;1.90;;;;;;;0.04;71.96;102876.84;4947551;28;20059;-81
2023/04/04 02:59:47;;;;;;;3.43;1.70;;;;;;;0.04;71.91;102879.41;4955348;28;20373;-81
2023/04/04 03:02:13;;;;;;;3.70;2.00;;;;;;;0.03;70.74;102875.06;4929851;28;20055;-81
2023/04/04 03:04:38;;;;;;;2.83;1.60;;;;;;;0.04;70.94;102873.41;4947081;28;20065;-81
2023/04/04 03:07:03;;;;;;;3.57;1.70;;;;;;;0.03;71.45;102867.41;4945534;28;20031;-81
2023/04/04 03:09:29;;;;;;;3.60;1.57;;;;;;;0.01;71.45;102865.56;4942458;28;20055;-81
2023/04/04 03:11:54;;;;;;;2.83;1.50;;;;;;;0.01;71.67;102868.13;4946133;28;20479;-81
2023/04/04 03:14:20;;;;;;;3.43;1.70;;;;;;;-0.01;71.36;102863.81;4940292;28;20038;-81
2023/04/04 03:16:48;;;;;;;3.67;1.90;;;;;;;-0.04;71.29;102863.66;4946340;28;20135;-81
2023/04/04 03:19:14;;;;;;;3.37;1.90;;;;;;;-0.05;71.14;102861.03;4941653;28;20126;-81
2023/04/04 03:21:39;;;;;;;2.43;1.40;;;;;;;-0.08;72.26;102864.28;4951514;28;20110;-81
2023/04/04 03:24:05;;;;;;;3.80;1.83;;;;;;;-0.09;71.18;102862.56;4950569;28;20043;-80
2023/04/04 03:26:30;;;;;;;3.20;1.70;;;;;;;-0.10;71.69;102857.34;4950357;28;20031;-81
2023/04/04 03:28:55;;;;;;;3.47;1.80;;;;;;;-0.08;71.95;102865.97;4950106;28;20031;-81
2023/04/04 03:31:21;;;;;;;2.83;1.70;;;;;;;-0.10;71.80;102865.91;4947896;28;20034;-81
2023/04/04 03:33:46;;;;;;;3.17;1.90;;;;;;;-0.09;72.17;102864.22;4934901;28;20055;-82
2023/04/04 03:36:12;;;;;;;4.47;1.90;;;;;;;-0.10;71.49;102862.47;4952926;28;20038;-81
2023/04/04 03:38:38;;;;;;;4.90;1.70;;;;;;;-0.11;71.33;102855.59;4948213;28;20106;-81
2023/04/04 03:41:04;;;;;;;2.57;1.63;;;;;;;-0.12;72.27;102858.94;4952554;28;20063;-81
2023/04/04 03:43:31;;;;;;;2.40;1.50;;;;;;;-0.14;70.99;102852.88;4956632;28;20106;-81
2023/04/04 03:46:03;;;;;;;3.97;1.80;;;;;;;-0.17;71.21;102856.16;4944112;28;20043;-81
2023/04/04 03:48:30;;;;;;;3.13;1.90;;;;;;;-0.19;71.18;102850.97;4942528;28;20058;-81
2023/04/04 03:50:59;;;;;;;3.13;1.53;;;;;;;-0.23;70.97;102851.63;4932718;28;20046;-81
2023/04/04 03:53:25;;;;;;;3.83;2.00;;;;;;;-0.26;70.76;102848.03;4948720;28;20130;-81
2023/04/04 03:55:51;;;;;;;4.60;2.03;;;;;;;-0.28;71.53;102845.38;4947411;28;20045;-81
2023/04/04 03:58:17;;;;;;;4.10;2.00;;;;;;;-0.31;71.22;102847.78;4932089;28;20082;-81
2023/04/04 04:00:42;;;;;;;4.13;1.80;;;;;;;-0.33;70.95;102839.13;4947478;28;20027;-81
2023/04/04 04:03:07;;;;;;;5.30;1.90;;;;;;;-0.34;71.22;102839.94;4939002;28;20142;-81
2023/04/04 04:05:32;;;;;;;4.13;2.00;;;;;;;-0.36;71.44;102849.22;4949596;28;20031;-82
2023/04/04 04:07:58;;;;;;;3.47;2.00;;;;;;;-0.38;71.64;102840.59;4954249;28;20110;-81
2023/04/04 04:10:23;;;;;;;3.27;1.83;;;;;;;-0.39;71.87;102843.94;4944299;28;20132;-82
2023/04/04 04:12:48;;;;;;;3.20;2.00;;;;;;;-0.42;71.83;102844.66;4953595;28;20392;-81
2023/04/04 04:15:13;;;;;;;2.83;1.73;;;;;;;-0.42;72.43;102854.88;4951998;28;20050;-81
2023/04/04 04:17:39;;;;;;;3.93;1.80;;;;;;;-0.44;72.54;102838.59;4944141;28;20043;-81
2023/04/04 04:20:07;;;;;;;2.67;1.80;;;;;;;-0.46;72.54;102843.63;4953294;28;20039;-81
2023/04/04 04:22:32;;;;;;;4.63;2.23;;;;;;;-0.46;72.64;102850.44;4953490;28;20039;-81
2023/04/04 04:24:57;;;;;;;3.40;1.87;;;;;;;-0.47;72.58;102851.22;4950731;28;20031;-82
2023/04/04 04:27:23;;;;;;;4.40;2.13;;;;;;;-0.51;72.07;102846.75;4936042;28;20031;-81
2023/04/04 04:29:48;;;;;;;3.37;1.97;;;;;;;-0.52;71.97;102839.88;4953491;28;20038;-81
2023/04/04 04:32:17;;;;;;;3.97;2.03;;;;;;;-0.54;72.00;102844.91;4949927;28;20489;-81
2023/04/04 04:34:42;;;;;;;4.80;2.23;;;;;;;-0.54;71.46;102842.34;4955016;28;20031;-81
2023/04/04 04:37:07;;;;;;;4.37;2.13;;;;;;;-0.51;71.30;102845.03;4948120;28;20398;-81
2023/04/04 04:39:33;;;;;;;5.03;2.57;;;;;;;-0.53;72.03;102846.66;4953237;28;20062;-81
2023/04/04 04:41:58;;;;;;;6.03;2.53;;;;;;;-0.54;71.69;102844.91;4950268;28;20089;-81
2023/04/04 04:44:23;;;;;;;4.93;2.70;;;;;;;-0.58;72.60;102842.97;4937753;28;21179;-81
2023/04/04 04:46:48;;;;;;;5.83;2.37;;;;;;;-0.58;72.45;102848.09;4948407;28;20459;-80
2023/04/04 04:49:14;;;;;;;3.70;2.30;;;;;;;-0.60;72.15;102844.56;4944066;28;20039;-81
2023/04/04 04:51:41;;;;;;;3.97;2.20;;;;;;;-0.60;71.35;102848.81;4949336;28;20463;-81
2023/04/04 04:54:06;;;;;;;4.40;2.30;;;;;;;-0.62;71.95;102851.28;4946876;28;20086;-81
2023/04/04 04:56:31;;;;;;;5.07;2.33;;;;;;;-0.62;72.07;102856.41;4939934;28;20398;-81
2023/04/04 04:58:57;;;;;;;4.73;2.23;;;;;;;-0.63;71.63;102855.53;4947474;28;20061;-81
2023/04/04 05:01:22;;;;;;;4.27;2.10;;;;;;;-0.62;72.22;102856.41;4939342;28;20031;-81
2023/04/04 05:03:47;;;;;;;4.73;2.20;;;;;;;-0.64;72.66;102858.88;4952046;28;20043;-81
2023/04/04 05:06:12;;;;;;;5.57;2.50;;;;;;;-0.65;73.25;102857.13;4951280;28;20118;-81
2023/04/04 05:08:38;;;;;;;3.87;2.20;;;;;;;-0.65;72.54;102863.91;4940544;28;20462;-81
2023/04/04 05:11:03;;;;;;;4.47;2.30;;;;;;;-0.66;72.97;102864.69;4948811;28;20033;-81
2023/04/04 05:13:28;;;;;;;5.70;2.20;;;;;;;-0.67;72.55;102862.94;4948119;28;20031;-81
2023/04/04 05:15:53;;;;;;;4.73;2.37;;;;;;;-0.67;72.83;102862.94;4948013;28;20435;-81
2023/04/04 05:18:19;;;;;;;4.27;2.20;;;;;;;-0.66;73.05;102864.69;4948021;28;20042;-81
2023/04/04 05:20:55;;;;;;;6.23;2.40;;;;;;;-0.65;73.29;102871.56;4949628;28;20534;-81
2023/04/04 05:23:21;;;;;;;3.53;2.10;;;;;;;-0.65;72.87;102871.56;4924811;28;20035;-81
2023/04/04 05:25:52;;;;;;;4.47;1.97;;;;;;;-0.62;73.44;102874.28;4945255;28;20063;-81
2023/04/04 05:28:20;;;;;;;4.17;1.87;;;;;;;-0.61;73.49;102870.94;4939597;28;20460;-81
2023/04/04 05:30:46;;;;;;;4.50;2.30;;;;;;;-0.62;73.60;102866.63;4926780;28;20283;-81
2023/04/04 05:33:11;;;;;;;3.13;1.90;;;;;;;-0.62;73.67;102866.63;4946221;28;20533;-81
2023/04/04 05:35:36;;;;;;;5.70;2.10;;;;;;;-0.63;72.95;102865.75;4933611;28;20110;-82
2023/04/04 05:38:02;;;;;;;4.73;2.20;;;;;;;-0.63;73.50;102864.84;4946288;28;20036;-81
2023/04/04 05:40:27;;;;;;;4.73;2.23;;;;;;;-0.63;73.23;102869.97;4942926;28;20043;-80
2023/04/04 05:43:03;;;;;;;3.67;2.40;;;;;;;-0.62;73.67;102879.41;4932577;28;20058;-80
2023/04/04 05:45:30;;;;;;;3.40;2.40;;;;;;;-0.60;73.47;102879.50;4948501;28;20082;-81
2023/04/04 05:47:55;;;;;;;4.40;2.40;;;;;;;-0.59;73.61;102877.00;4935177;28;20466;-81
2023/04/04 05:50:20;;;;;;;4.90;2.70;;;;;;;-0.55;73.92;102878.94;4949627;28;20070;-81
2023/04/04 05:52:46;;;;;;;3.60;2.33;;;;;;;-0.50;73.89;102886.84;4940243;28;20047;-81
2023/04/04 05:55:11;;;;;;;4.47;2.73;;;;;;;-0.49;74.10;102889.47;4947107;28;20683;-81
2023/04/04 05:57:36;;;;;;;4.97;2.80;;;;;;;-0.43;73.96;102888.94;4944965;28;20030;-81
2023/04/04 06:00:04;;;;;;;5.43;2.60;;;;;;;-0.38;73.19;102884.06;4943006;28;20035;-81
2023/04/04 06:02:30;;;;;;;5.27;2.37;;;;;;;-0.33;73.74;102885.16;4936843;28;20134;-81
2023/04/04 06:04:56;;;;;;;4.17;2.07;;;;;;;-0.30;74.10;102885.34;4939561;28;20031;-81
2023/04/04 06:07:21;;;;;;;5.27;2.50;;;;;;;-0.26;73.60;102894.94;4948021;28;20082;-80
2023/04/04 06:09:46;;;;;;;3.83;2.30;;;;;;;-0.21;74.26;102877.25;4964055;28;20041;-80
2023/04/04 06:12:12;;;;;;;4.00;2.03;;;;;;;-0.19;74.48;102883.34;4944265;28;20045;-80
2023/04/04 06:14:37;;;;;;;3.47;2.50;;;;;;;-0.16;74.55;102879.25;4934177;28;20163;-80
2023/04/04 06:17:03;;;;;;;4.63;2.60;;;;;;;-0.11;75.11;102886.28;4957811;28;20034;-81
2023/04/04 06:19:29;;;;;;;4.60;2.60;;;;;;;-0.08;74.80;102887.31;4936530;28;20415;-81
2023/04/04 06:21:54;;;;;;;5.10;3.03;;;;;;;-0.02;73.83;102892.75;4956092;28;20035;-82
2023/04/04 06:24:20;;;;;;;5.10;2.90;;;;;;;0.02;73.82;102892.94;4945838;28;20109;-81
2023/04/04 06:26:45;;;;;;;5.47;3.10;;;;;;;0.08;73.20;102894.13;4951114;28;20037;-80
2023/04/04 06:29:11;;;;;;;6.43;3.20;;;;;;;0.13;72.88;102895.25;4946357;28;20030;-81
2023/04/04 06:31:36;;;;;;;5.40;2.93;;;;;;;0.19;73.20;102899.78;4943321;28;20031;-81
2023/04/04 06:34:01;;;;;;;5.10;2.67;;;;;;;0.24;72.77;102902.56;4943574;28;20038;-82
2023/04/04 06:36:27;;;;;;;6.20;3.03;;;;;;;0.29;72.76;102904.56;4952486;28;20027;-81
2023/04/04 06:38:52;;;;;;;6.00;3.13;;;;;;;0.36;73.37;102903.16;4951310;28;20520;-81
2023/04/04 06:41:17;;;;;;;6.97;3.00;;;;;;;0.42;73.05;102908.59;4953218;28;20027;-81
2023/04/04 06:43:45;;;;;;;6.10;3.10;;;;;;;0.49;72.04;102901.25;4949941;28;20384;-80
2023/04/04 06:46:11;;;;;;;8.03;3.30;;;;;;;0.55;72.25;102906.66;4945563;28;20093;-81
2023/04/04 06:48:36;;;;;;;6.57;2.93;;;;;;;0.61;71.31;102901.84;4947802;28;20027;-81
2023/04/04 06:51:07;;;;;;;4.70;2.90;;;;;;;0.67;71.66;102909.84;4949494;28;20475;-82
2023/04/04 06:53:33;;;;;;;6.13;3.40;;;;;;;0.74;72.32;102899.06;4947499;28;20031;-81
2023/04/04 06:55:59;;;;;;;4.33;2.87;;;;;;;0.82;71.56;102913.94;4946612;28;20471;-81
2023/04/04 06:58:24;;;;;;;8.40;3.40;;;;;;;0.90;71.52;102910.03;4947135;28;20085;-81
2023/04/04 07:00:50;;;;;;;6.50;3.20;;;;;;;0.97;71.18;102906.97;4949745;28;20389;-81
2023/04/04 07:03:15;;;;;;;5.57;3.20;;;;;;;1.06;71.57;102897.16;4952244;28;20392;-81
2023/04/04 07:05:41;;;;;;;5.27;3.00;;;;;;;1.13;71.50;102905.13;4949043;28;20034;-81
2023/04/04 07:08:06;;;;;;;4.77;2.93;;;;;;;1.20;70.50;102910.63;4950791;28;20038;-82
2023/04/04 07:10:32;;;;;;;6.43;3.03;;;;;;;1.29;70.82;102917.84;4953400;28;20075;-80
2023/04/04 07:12:57;;;;;;;5.23;3.07;;;;;;;1.34;70.35;102916.41;4954368;28;20027;-82
2023/04/04 07:15:22;;;;;;;5.83;2.90;;;;;;;1.43;69.25;102918.50;4957056;28;20529;-81
2023/04/04 07:17:48;;;;;;;4.27;3.17;;;;;;;1.50;69.03;102914.53;4953212;28;20027;-81
2023/04/04 07:20:13;;;;;;;4.97;2.80;;;;;;;1.57;68.37;102915.69;4954636;28;20442;-81
2023/04/04 07:22:39;;;;;;;6.27;3.30;;;;;;;1.65;68.41;102911.75;4951197;28;20031;-81
2023/04/04 07:25:06;;;;;;;7.03;3.40;;;;;;;1.71;67.57;102903.47;4947521;28;20078;-81
2023/04/04 07:27:31;;;;;;;5.83;2.93;;;;;;;1.76;68.17;102901.97;4953096;28;20078;-81
2023/04/04 07:29:56;;;;;;;4.63;3.23;;;;;;;1.83;68.56;102901.44;4949431;28;20023;-81
2023/04/04 07:32:22;;;;;;;6.03;3.10;;;;;;;1.90;67.81;102902.59;4948583;28;20031;-81
2023/04/04 07:34:49;;;;;;;6.40;3.73;;;;;;;1.96;67.93;102895.16;4952998;28;20027;-82
2023/04/04 07:37:14;;;;;;;6.33;3.20;;;;;;;2.03;67.67;102893.75;4952225;28;20035;-81
2023/04/04 07:39:40;;;;;;;5.30;3.33;;;;;;;2.09;68.50;102889.75;4954016;28;20055;-82
2023/04/04 07:42:06;;;;;;;5.33;3.17;;;;;;;2.16;68.12;102888.31;4953584;28;20031;-82
2023/04/04 07:44:31;;;;;;;6.83;3.60;;;;;;;2.23;68.71;102889.44;4955269;28;20090;-82
2023/04/04 07:46:56;;;;;;;7.17;3.70;;;;;;;2.29;68.32;102894.84;4953818;28;20086;-82
2023/04/04 07:49:22;;;;;;;6.03;3.30;;;;;;;2.37;69.02;102895.16;4955930;28;20033;-82
2023/04/04 07:51:47;;;;;;;5.20;2.87;;;;;;;2.43;69.23;102903.09;4956351;28;20398;-80
2023/04/04 07:54:13;;;;;;;5.87;3.40;;;;;;;2.51;68.25;102898.28;4957360;28;20066;-81
2023/04/04 07:56:38;;;;;;;5.50;3.20;;;;;;;2.57;66.69;102895.97;4955994;28;20057;-80
2023/04/04 07:59:05;;;;;;;5.07;2.93;;;;;;;2.64;66.85;102897.09;4953272;28;20031;-81
2023/04/04 08:01:30;;;;;;;5.00;2.90;;;;;;;2.67;66.13;102892.94;4956912;28;20090;-80
2023/04/04 08:03:56;;;;;;;6.13;3.17;;;;;;;2.73;67.75;102895.78;4955506;28;20059;-81
2023/04/04 08:06:21;;;;;;;4.60;2.80;;;;;;;2.80;66.73;102893.47;4950929;28;20167;-81
2023/04/04 08:08:47;;;;;;;6.30;3.20;;;;;;;2.85;64.24;102897.97;4954014;28;20035;-81
2023/04/04 08:11:12;;;;;;;8.03;3.17;;;;;;;2.90;63.99;102902.41;4947971;28;20027;-80
2023/04/04 08:13:37;;;;;;;6.90;2.80;;;;;;;2.95;63.67;102903.44;4951879;28;20055;-80
2023/04/04 08:16:04;;;;;;;4.93;2.90;;;;;;;2.98;63.18;102907.03;4945172;28;20035;-81
2023/04/04 08:18:29;;;;;;;5.33;2.80;;;;;;;3.03;63.10;102905.50;4950998;28;20114;-81
2023/04/04 08:20:54;;;;;;;5.53;2.60;;;;;;;3.07;62.93;102903.06;4955211;28;20160;-81
2023/04/04 08:23:19;;;;;;;4.47;2.37;;;;;;;3.13;61.64;102913.59;4956522;28;20019;-81
2023/04/04 08:25:45;;;;;;;5.27;2.13;;;;;;;3.17;62.43;102908.63;4947984;28;20106;-81
2023/04/04 08:28:12;;;;;;;4.47;2.20;;;;;;;3.20;61.04;102905.28;4952751;28;20026;-81
2023/04/04 08:30:38;;;;;;;4.43;2.27;;;;;;;3.24;61.09;102898.56;4942938;28;20023;-82
2023/04/04 08:33:03;;;;;;;3.97;2.10;;;;;;;3.29;62.37;102897.03;4956576;28;20097;-81
2023/04/04 08:35:28;;;;;;;5.40;2.20;;;;;;;3.35;60.92;102894.69;4952011;28;20081;-81
2023/04/04 08:37:53;;;;;;;4.77;2.00;;;;;;;3.37;59.85;102895.63;4953855;28;20026;-81
2023/04/04 08:40:19;;;;;;;3.87;1.80;;;;;;;3.42;59.27;102890.66;4945951;28;20085;-81
2023/04/04 08:42:47;;;;;;;4.80;1.70;;;;;;;3.45;58.36;102889.06;4955277;28;20026;-80
2023/04/04 08:45:16;;;;;;;2.67;1.63;;;;;;;3.51;59.71;102893.56;4943478;28;20050;-82
2023/04/04 08:47:43;;;;;;;3.67;1.70;;;;;;;3.55;59.09;102884.28;4954092;28;20058;-81
2023/04/04 08:50:08;;;;;;;6.47;1.80;;;;;;;3.59;58.89;102884.44;4943969;28;20074;-80
2023/04/04 08:52:34;;;;;;;3.93;1.93;;;;;;;3.62;57.28;102889.69;4948973;28;20031;-80
2023/04/04 08:55:03;;;;;;;2.97;1.67;;;;;;;3.66;57.35;102879.53;4934883;28;20166;-81
2023/04/04 08:57:28;;;;;;;4.90;1.70;;;;;;;3.70;56.90;102877.09;4950310;28;20031;-81
2023/04/04 08:59:54;;;;;;;3.63;1.70;;;;;;;3.74;57.94;102878.09;4946014;28;20501;-80
2023/04/04 09:02:28;;;;;;;7.13;2.10;;;;;;;3.76;57.29;102877.31;4933920;28;20113;-80
2023/04/04 09:04:55;;;;;;;4.60;1.77;;;;;;;3.79;57.70;102880.00;4945390;28;20031;-81
2023/04/04 09:07:21;;;;;;;3.57;1.63;;;;;;;3.86;55.74;102883.66;4947041;28;20042;-80
2023/04/04 09:09:48;;;;;;;3.80;1.63;;;;;;;3.93;55.76;102888.22;4945202;28;20031;-79
2023/04/04 09:12:14;;;;;;;2.40;1.40;;;;;;;3.98;54.79;102880.63;4947185;28;20031;-81
2023/04/04 09:14:42;;;;;;;2.43;1.37;;;;;;;4.01;55.30;102878.19;4928952;28;20031;-81
2023/04/04 09:17:09;;;;;;;3.17;1.50;;;;;;;4.06;54.86;102881.78;4948149;28;20059;-81
2023/04/04 09:19:35;;;;;;;3.13;1.40;;;;;;;4.09;55.15;102887.06;4947274;28;20127;-80
2023/04/04 09:22:00;;;;;;;2.73;1.40;;;;;;;4.14;55.24;102888.91;4917705;28;20114;-82
2023/04/04 09:24:38;;;;;;;3.67;1.40;;;;;;;4.15;56.12;102882.91;4949311;28;20082;-81
2023/04/04 09:27:03;;;;;;;2.73;1.60;;;;;;;4.19;55.52;102882.19;4948339;28;20061;-81
2023/04/04 09:29:29;;;;;;;5.00;1.77;;;;;;;4.25;55.48;102877.28;4947968;28;20593;-80
2023/04/04 09:31:54;;;;;;;5.00;1.77;;;;;;;4.28;56.20;102876.50;4945930;28;20034;-81
2023/04/04 09:34:20;;;;;;;3.40;1.90;;;;;;;4.30;55.99;102873.13;4932871;28;20565;-81
2023/04/04 09:36:46;;;;;;;4.27;1.83;;;;;;;4.34;55.91;102872.41;4946543;28;20043;-81
2023/04/04 09:39:15;;;;;;;3.63;1.73;;;;;;;4.37;54.61;102880.25;4948640;28;20050;-80
2023/04/04 09:41:41;;;;;;;6.63;1.80;;;;;;;4.39;55.16;102870.88;4946821;28;20031;-81
2023/04/04 09:44:09;;;;;;;3.20;1.60;;;;;;;4.42;55.01;102866.66;4948435;28;20093;-81
2023/04/04 09:46:36;;;;;;;3.13;1.80;;;;;;;4.44;53.92;102867.56;4946421;28;20053;-81
2023/04/04 09:49:01;;;;;;;3.30;1.40;;;;;;;4.47;55.28;102868.53;4931277;28;20066;-81
2023/04/04 09:51:40;;;;;;;4.37;1.70;;;;;;;4.52;55.34;102863.53;4933119;28;20364;-80
2023/04/04 09:54:09;;;;;;;3.38;1.45;;;;;;;4.54;54.45;102851.56;4935260;28;20130;-81
2023/04/04 09:56:39;;;;;;;2.80;1.50;;;;;;;4.63;54.79;102864.72;4948184;28;20606;-81
2023/04/04 09:59:06;;;;;;;4.40;1.40;;;;;;;4.67;53.78;102860.56;4944133;28;20614;-81
2023/04/04 10:01:32;;;;;;;3.95;1.50;;;;;;;4.72;54.09;102853.84;4947455;28;20050;-81
2023/04/04 10:03:58;;;;;;;5.32;1.90;;;;;;;4.79;56.26;102854.91;4946156;28;20050;-80
2023/04/04 10:06:24;;;;;;;5.35;1.63;;;;;;;4.84;54.71;102848.19;4946310;28;20035;-81
2023/04/04 10:08:49;;;;;;;4.50;1.80;;;;;;;4.88;53.12;102856.88;4944432;28;20046;-82
2023/04/04 10:11:28;;;;;;;4.00;1.70;;;;;;;4.96;56.89;102863.16;4943017;28;20035;-82
2023/04/04 10:13:56;;;;;;;2.97;1.50;;;;;;;4.98;52.80;102849.47;4928049;28;20576;-82
2023/04/04 10:16:23;;;;;;;4.28;1.63;;;;;;;5.04;54.91;102856.50;4937889;28;20048;-82
2023/04/04 10:18:50;;;;;;;4.72;1.55;;;;;;;5.07;53.42;102850.59;4937625;28;20040;-82
2023/04/04 10:21:16;;;;;;;3.75;1.60;;;;;;;5.07;53.04;102848.88;4934724;28;21308;-81
2023/04/04 10:23:45;;;;;;;4.55;1.70;;;;;;;5.09;51.88;102843.78;4940239;28;20042;-81
2023/04/04 10:26:11;;;;;;;3.92;1.70;;;;;;;5.11;52.04;102847.28;4942207;28;20568;-81
2023/04/04 10:28:36;;;;;;;4.55;1.70;;;;;;;5.12;50.47;102838.72;4942700;28;20401;-81
2023/04/04 10:31:09;;;;;;;3.83;1.83;;;;;;;5.15;55.08;102846.53;4923106;28;20405;-81
2023/04/04 10:33:45;;;;;;;5.22;1.80;;;;;;;5.22;53.40;102839.81;4938836;28;20071;-81
2023/04/04 10:36:13;;;;;;;3.75;1.50;;;;;;;5.26;51.69;102847.72;4920640;28;20031;-82
2023/04/04 10:38:43;;;;;;;4.25;2.00;;;;;;;5.34;51.95;102845.38;4943489;28;20042;-82
2023/04/04 10:41:11;;;;;;;2.63;1.60;;;;;;;5.37;52.36;102835.13;4929055;28;20034;-81
2023/04/04 10:43:40;;;;;;;5.30;1.90;;;;;;;5.45;54.36;102837.94;4945943;28;20054;-83
2023/04/04 10:46:16;;;;;;;4.88;1.70;;;;;;;5.51;53.08;102834.63;4944163;28;20039;-81
2023/04/04 10:48:43;;;;;;;2.42;1.40;;;;;;;5.56;52.64;102833.03;4943827;28;20034;-80
2023/04/04 10:51:10;;;;;;;2.65;1.42;;;;;;;5.55;50.57;102826.16;4943214;28;20336;-81
2023/04/04 10:53:37;;;;;;;2.88;1.40;;;;;;;5.58;51.17;102829.69;4921530;28;20435;-82
2023/04/04 10:56:03;;;;;;;3.17;1.67;;;;;;;5.62;50.76;102820.31;4924974;28;20043;-81
2023/04/04 10:58:29;;;;;;;2.92;1.55;;;;;;;5.67;49.71;102820.41;4943132;28;20468;-81
2023/04/04 11:00:56;;;;;;;4.07;1.73;;;;;;;5.70;49.58;102817.91;4922811;28;20034;-81
2023/04/04 11:03:21;;;;;;;4.07;1.67;;;;;;;5.71;49.43;102820.56;4939282;28;20048;-82
2023/04/04 11:05:48;;;;;;;4.50;1.50;;;;;;;5.73;48.58;102815.44;4937842;28;20036;-81
2023/04/04 11:08:21;;;;;;;3.28;1.75;;;;;;;5.78;50.37;102819.00;4943520;28;20527;-81
2023/04/04 11:10:48;;;;;;;4.13;1.50;;;;;;;5.81;47.15;102806.16;4945275;28;20046;-81
2023/04/04 11:13:21;;;;;;;4.07;1.70;;;;;;;5.87;48.65;102806.31;4923946;28;20035;-80
2023/04/04 11:16:08;;;;;;;2.75;1.50;;;;;;;5.97;51.10;102804.00;4929488;28;20041;-79
2023/04/04 11:18:44;;;;;;;3.22;1.70;;;;;;;6.04;49.71;102799.03;4926191;28;20500;-80
2023/04/04 11:21:18;;;;;;;5.30;1.50;;;;;;;6.10;49.31;102800.91;4940201;28;20035;-81
2023/04/04 11:23:47;;;;;;;3.47;1.50;;;;;;;6.18;47.59;102790.75;4949125;28;20521;-80
2023/04/04 11:26:15;;;;;;;4.00;1.40;;;;;;;6.27;49.71;102790.09;4932576;28;20035;-80
2023/04/04 11:28:40;;;;;;;3.88;1.60;;;;;;;6.35;46.14;102791.13;4940329;28;20094;-81